Weather observations for the past three days for
Boca Raton, Boca Raton Airport
Metric (Imperial)
Date Time (edt) Wind (kph) Vis. (km) Weather Sky Cond. Temperature (ºC) Relative Humidity Wind Chill (°C) Heat Index (°C) Pressure Precipitation (cm)
Air Dwpt 6 hour altimeter (cm) sea level (mb) 1 hr 3 hr 6 hr
Max. Min.
10 10:53 SE 19 G 30 16.09 Mostly Cloudy SCT022CB BKN049 30 24 70% 35 76.28 0.0
10 09:53 S 11 16.09 Mostly Cloudy FEW022 BKN030 30 24 70% 35 76.28 0.0
10 08:53 SE 11 16.09 Partly Cloudy FEW018 SCT040 29 24 74% 34 76.25 0.0
10 07:53 S 6 16.09 A Few Clouds FEW020 FEW040 28 25 84% 33 76.2 0.0
10 07:00 S 7 16.09 A Few Clouds FEW020 25 24 94% 26 76.15 0.0
10 06:15 SE 4 16.09 Fair CLR 24 23 94% 23 76.12 0.0
10 05:55 S 4 16.09 Fair CLR 25 23 89% 26 76.12 0.0
10 05:35 SE 2 16.09 Fair CLR 25 23 89% 26 76.12 0.0
10 05:15 Calm 16.09 Fair CLR 24 23 94% 23 76.1 0.0
10 04:55 Calm 16.09 Partly Cloudy SCT065 24 23 94% 23 76.1 0.0
10 04:35 Calm 16.09 A Few Clouds FEW065 25 23 89% 26 76.1 0.0
10 04:15 Calm 16.09 Fair CLR 25 22 83% 26 76.1 0.0
10 03:55 N 2 16.09 Fair CLR 25 22 83% 26 76.1 0.0
10 03:35 NW 2 16.09 A Few Clouds FEW070 25 22 83% 26 76.1 0.0
10 03:15 SW 2 16.09 Partly Cloudy SCT070 25 22 83% 26 76.1 0.0
10 02:55 SW 4 16.09 Partly Cloudy SCT070 25 22 83% 26 76.1 0.0
10 02:35 W 6 16.09 Partly Cloudy SCT070 26 22 79% 28 76.12 0.0
10 02:15 Calm 16.09 Mostly Cloudy BKN070 26 22 79% 28 76.12 0.0
10 01:55 W 4 16.09 Partly Cloudy SCT080 27 22 28.5 26.9 74% 29 76.12 0.0
10 01:35 S 6 16.09 Overcast SCT065 OVC075 27 22 74% 29 76.15 0.0
10 01:15 S 4 16.09 Overcast OVC065 28 22 70% 31 76.17 0.0
10 00:55 S 7 16.09 Overcast OVC065 28 22 70% 31 76.17 0.0
10 00:35 SW 7 16.09 Overcast OVC055 28 22 70% 31 76.17 0.0
10 00:15 SW 6 16.09 Overcast BKN055 OVC075 28 22 70% 31 76.17 0.0
09 23:55 S 6 16.09 Overcast BKN060 OVC070 28 22 70% 31 76.17 0.0
09 23:15 Vrbl 9 16.09 Overcast OVC050 28 23 74% 31 76.15 0.0
09 22:53 S 9 16.09 Partly Cloudy SCT050 28 23 74% 31 76.15 0.0
09 21:53 S 13 16.09 Overcast OVC050 28 23 74% 31 76.1 0.0
09 20:53 S 15 G 28 16.09 Fair CLR 28 23 74% 31 76.02 0.0
09 19:53 S 22 G 35 16.09 Partly Cloudy SCT110 29 23 70% 33 75.95 0.0
09 18:53 S 28 G 39 16.09 Partly Cloudy SCT045 29 23 70% 33 75.92 0.0
09 17:53 S 28 G 41 16.09 Partly Cloudy SCT045 31 23 62% 35 75.9 0.0
09 16:53 S 24 G 39 16.09 Partly Cloudy SCT040 31 22 59% 35 75.92 0.0
09 15:53 SE 26 G 37 16.09 Partly Cloudy SCT040 32 23 59% 37 75.95 0.0
09 14:53 S 19 G 31 16.09 Partly Cloudy SCT040 32 22 55% 36 76 0.0
09 13:53 S 17 G 30 16.09 Partly Cloudy SCT036 32 23 59% 37 76.02 0.0
09 12:53 SE 17 16.09 Partly Cloudy SCT040 32 22 55% 36 76.07 0.0
09 11:53 S 13 G 26 16.09 Partly Cloudy SCT036 32 23 59% 37 76.12 0.0
09 10:53 S 15 16.09 A Few Clouds FEW036 31 23 62% 35 76.1 0.0
09 09:53 SE 15 16.09 A Few Clouds FEW028 30 23 66% 34 76.1 0.0
09 08:53 Vrbl 6 16.09 A Few Clouds FEW020 28 24 79% 32 76.07 0.0
09 07:53 SW 6 16.09 Fair CLR 26 24 89% 28 76.1 0.0
09 07:00 Calm 16.09 A Few Clouds FEW004 25 24 94% 26 76.07 0.0
09 06:15 W 7 11.27 Partly Cloudy SCT006 25 24 94% 26 76.05 0.0
09 05:55 W 7 12.87 Overcast OVC004 25 24 94% 26 76.05 0.0
09 05:36 W 7 11.27 Mostly Cloudy BKN004 BKN018 25 24 94% 26 76.02 0.0
09 05:15 W 9 12.87 Mostly Cloudy SCT004 BKN022 25 24 94% 26 76.02 0.0
09 04:55 W 7 16.09 Mostly Cloudy BKN020 BKN025 25 24 94% 26 76.02 0.0
09 04:35 NW 6 16.09 Overcast OVC018 26 24 89% 28 76.02 0.0
09 03:55 W 6 16.09 Mostly Cloudy BKN014 25 24 94% 26 76.02 0.0
09 03:35 SW 4 16.09 Mostly Cloudy BKN014 26 24 89% 28 76.02 0.0
09 03:15 S 4 16.09 Mostly Cloudy BKN014 26 24 89% 28 76.02 0.0
09 02:55 S 7 16.09 Partly Cloudy SCT014 26 24 89% 28 76.02 0.0
09 02:35 S 7 16.09 A Few Clouds FEW013 26 24 89% 28 76.05 0.0
09 02:15 S 7 16.09 Fair CLR 26 24 89% 28 76.05 0.0
09 01:55 SE 9 16.09 A Few Clouds FEW013 FEW049 26 24 27.3 26.2 89% 28 76.05 0.0
09 01:35 S 13 16.09 Mostly Cloudy BKN013 27 24 84% 30 76.07 0.0
09 01:15 SE 13 16.09 Partly Cloudy SCT011 26 24 89% 28 76.07 0.0
09 00:55 SE 7 16.09 Partly Cloudy SCT011 26 25 94% 28 76.1 0.0
09 00:35 SE 9 16.09 Partly Cloudy SCT011 26 25 94% 28 76.1 0.0
09 00:15 SE 9 16.09 A Few Clouds FEW011 26 24 89% 28 76.12 0.0
08 23:55 SE 9 16.09 Fair CLR 26 24 89% 28 76.12 0.0
08 23:35 SE 9 16.09 Fair CLR 26 24 89% 28 76.12 0.0
08 23:15 SE 7 16.09 Fair CLR 26 24 89% 28 76.12 0.0
08 22:53 SE 9 16.09 Fair CLR 27 24 84% 30 76.12 0.0
08 19:53 E 13 16.09 Fair CLR 27 23 79% 30 76 0.0
08 18:53 E 17 16.09 Fair CLR 28 24 79% 32 75.97 0.0
08 17:53 E 24 G 31 16.09 A Few Clouds FEW040 29 24 74% 34 75.97 0.0
08 16:53 E 15 G 26 16.09 A Few Clouds FEW024 29 23 70% 33 76 0.0
08 15:53 E 17 G 28 16.09 A Few Clouds FEW040 30 22 62% 33 76.05 0.0
08 14:53 E 20 16.09 A Few Clouds FEW036 30 21 59% 33 76.07 0.0
08 13:53 E 17 16.09 Fair CLR 31 20 52% 33 76.12 0.0
08 12:53 E 15 G 28 16.09 Fair CLR 30 21 59% 33 76.2 0.0
08 11:53 E 15 G 28 16.09 Fair CLR 30 21 59% 33 76.2 0.0
08 10:53 N 19 16.09 Fair CLR 31 20 52% 33 76.23 0.0
08 09:53 N 20 16.09 Fair CLR 29 20 58% 31 76.2 0.0
08 08:53 NW 15 16.09 Fair CLR 27 20 66% 29 76.2 0.0
08 07:53 NW 11 16.09 Fair CLR 25 19 69% 26 76.15 0.0
08 06:53 NW 9 16.09 Fair CLR 23 19 78% 76.1 0.0
08 06:15 NW 9 16.09 Fair CLR 23 19 78% 76.07 0.0
08 05:55 NW 9 16.09 Fair CLR 23 19 78% 76.05 0.0
08 05:35 NW 9 16.09 Fair CLR 24 20 78% 24 76.05 0.0
08 05:15 NW 9 16.09 Fair CLR 24 20 78% 24 76.05 0.0
08 04:55 NW 9 16.09 Fair CLR 24 20 78% 24 76.05 0.0
08 04:35 NW 9 16.09 Fair CLR 24 21 83% 24 76.05 0.0
08 04:15 NW 9 16.09 Fair CLR 25 22 83% 26 76.05 0.0
08 03:35 NW 7 16.09 Fair CLR 25 23 89% 26 76.05 0.0
08 03:15 W 6 16.09 Fair CLR 25 23 89% 26 76.05 0.0
08 02:55 W 7 16.09 Fair CLR 25 23 89% 26 76.05 0.0
08 02:35 W 4 16.09 Fair CLR 25 22 83% 26 76.07 0.0
08 02:15 Vrbl 4 16.09 Fair CLR 26 23 84% 28 76.07 0.0
08 01:55 S 6 16.09 Fair CLR 26 23 28.2 25.8 84% 28 76.07 0.0
08 01:35 S 6 16.09 Fair CLR 26 23 84% 28 76.1 0.0
08 01:15 S 9 16.09 Fair CLR 26 23 84% 28 76.1 0.0
08 00:55 S 11 16.09 Fair CLR 27 23 79% 30 76.1 0.0
08 00:35 S 9 16.09 Fair CLR 27 22 74% 29 76.1 0.0
08 00:15 S 7 16.09 Fair CLR 27 22 74% 29 76.12 0.0
07 23:55 S 9 16.09 Fair CLR 27 22 74% 29 76.12 0.0
07 23:35 S 13 16.09 Fair CLR 27 22 74% 29 76.12 0.0
07 19:53 S 15 16.09 A Few Clouds FEW040 28 20 62% 30 76.07 0.0
07 18:53 S 19 16.09 Fair CLR 29 19 55% 30 76.05 0.0
07 16:53 SE 20 G 28 16.09 A Few Clouds FEW040 31 21 55% 34 76.05 0.0
07 15:53 SE 13 16.09 A Few Clouds FEW040 31 21 55% 34 76.07 0.0
07 14:53 SE 13 16.09 A Few Clouds FEW040 31 21 55% 34 76.12 0.0
07 13:53 SE 17 16.09 A Few Clouds FEW036 31 22 59% 35 76.17 0.0
07 12:53 SE 15 16.09 A Few Clouds FEW036 31 22 59% 35 76.23 0.0
07 11:53 SE 15 16.09 A Few Clouds FEW036 31 22 59% 35 76.28 0.0
Date Time (edt) Wind (kph) Vis. (km) Weather Sky Cond. Air Dwpt Max. Min. Relative Humidity Wind Chill (°C) Heat Index (°C) altimeter (cm) sea level (mb) 1 hr 3 hr 6 hr
6 hour
Temperature (ºC) Pressure Precipitation (cm)